createdAt,value
2022-08-25T00:04:44.019Z,97726.13
2022-08-25T00:14:46.352Z,97724.66
2022-08-25T00:24:48.532Z,97725.06
2022-08-25T00:34:50.747Z,97728.66
2022-08-25T00:44:54.015Z,97724.97
2022-08-25T00:55:08.365Z,97721.94
2022-08-25T01:05:11.487Z,97715.50
2022-08-25T01:15:15.154Z,97701.06
2022-08-25T01:26:13.361Z,97682.91
2022-08-25T01:36:18.895Z,97688.22
2022-08-25T01:46:21.302Z,97680.13
2022-08-25T01:56:23.493Z,97684.53
2022-08-25T02:06:30.028Z,97689.91
2022-08-25T02:16:35.960Z,97692.03
2022-08-25T02:26:38.841Z,97696.72
2022-08-25T02:36:41.244Z,97683.44
2022-08-25T02:46:43.443Z,97668.84
2022-08-25T02:56:45.760Z,97659.44
2022-08-25T03:06:48.462Z,97661.56
2022-08-25T03:16:50.784Z,97651.50
2022-08-25T03:26:56.451Z,97636.44
2022-08-25T03:36:59.642Z,97638.38
2022-08-25T03:47:01.806Z,97641.13
2022-08-25T03:57:04.371Z,97642.91
2022-08-25T04:07:07.016Z,97640.97
2022-08-25T04:17:10.172Z,97654.56
2022-08-25T04:27:12.427Z,97651.19
2022-08-25T04:37:15.108Z,97652.00
2022-08-25T04:47:17.276Z,97653.13
2022-08-25T04:57:19.414Z,97647.91
2022-08-25T05:07:21.568Z,97651.59
2022-08-25T05:17:23.800Z,97644.50
2022-08-25T05:27:25.975Z,97639.59
2022-08-25T05:37:28.148Z,97646.72
2022-08-25T05:47:30.282Z,97631.00
2022-08-25T05:57:34.414Z,97622.00
2022-08-25T06:07:36.792Z,97628.94
2022-08-25T06:17:43.103Z,97630.19
2022-08-25T06:27:46.150Z,97629.47
2022-08-25T06:37:48.406Z,97624.84
2022-08-25T06:47:52.108Z,97629.75
2022-08-25T06:57:55.258Z,97629.66
2022-08-25T07:07:57.620Z,97627.34
2022-08-25T07:17:59.761Z,97632.94
2022-08-25T07:28:02.927Z,97636.59
2022-08-25T07:38:10.110Z,97635.03
2022-08-25T07:48:13.374Z,97646.00
2022-08-25T07:58:16.078Z,97650.88
2022-08-25T08:08:19.067Z,97647.06
2022-08-25T08:18:21.575Z,97631.88
2022-08-25T08:28:28.018Z,97622.72
2022-08-25T08:38:30.738Z,97617.25
2022-08-25T08:48:55.940Z,97612.34
2022-08-25T08:59:22.438Z,97602.75
2022-08-25T09:09:36.137Z,97608.25
2022-08-25T09:19:53.821Z,97599.84
2022-08-25T09:30:05.222Z,97592.44
2022-08-25T09:40:09.649Z,97594.44
2022-08-25T09:50:18.462Z,97580.09
2022-08-25T10:00:27.278Z,97567.31
2022-08-25T10:10:37.258Z,97550.84
2022-08-25T10:20:44.696Z,97542.94
2022-08-25T10:31:02.502Z,97526.88
2022-08-25T10:41:39.029Z,97528.69
2022-08-25T10:52:05.565Z,97511.44
2022-08-25T11:02:33.670Z,97496.31
2022-08-25T11:12:43.832Z,97494.28
2022-08-25T11:23:04.744Z,97489.47
2022-08-25T11:33:08.259Z,97471.81
2022-08-25T11:43:10.890Z,97466.59
2022-08-25T11:53:13.043Z,97457.44
2022-08-25T12:03:36.449Z,97455.78
2022-08-25T12:13:47.647Z,97445.78
2022-08-25T12:24:02.022Z,97444.22
2022-08-25T12:34:30.820Z,97445.41
2022-08-25T12:45:16.717Z,97444.97
2022-08-25T12:55:22.257Z,97433.38
2022-08-25T13:06:00.129Z,97428.13
2022-08-25T13:16:07.356Z,97424.09
2022-08-25T13:26:27.617Z,97421.72
2022-08-25T13:37:01.072Z,97408.19
2022-08-25T13:47:10.008Z,97399.34
2022-08-25T13:57:21.736Z,97397.38
2022-08-25T14:07:25.940Z,97383.75
2022-08-25T14:17:39.287Z,97362.16
2022-08-25T14:38:11.009Z,97366.84
2022-08-25T14:48:21.421Z,97360.84
2022-08-25T14:58:25.783Z,97357.25
2022-08-25T15:08:47.723Z,97356.44
2022-08-25T15:18:50.366Z,97351.97
2022-08-25T15:28:52.726Z,97364.22
2022-08-25T15:38:55.073Z,97358.44
2022-08-25T15:48:59.686Z,97355.56
2022-08-25T15:59:05.599Z,97351.84
2022-08-25T16:09:10.928Z,97342.28
2022-08-25T16:19:15.154Z,97336.13
2022-08-25T16:29:19.145Z,97340.59
2022-08-25T16:39:23.928Z,97342.22
2022-08-25T16:49:26.305Z,97344.81
2022-08-25T16:59:29.332Z,97345.00
2022-08-25T17:09:31.798Z,97348.88
2022-08-25T17:19:34.271Z,97358.34
2022-08-25T17:29:37.822Z,97357.31
2022-08-25T17:39:40.014Z,97357.31
2022-08-25T17:49:42.304Z,97374.34
2022-08-25T17:59:44.575Z,97385.09
2022-08-25T18:09:46.943Z,97383.94
2022-08-25T18:19:49.754Z,97391.59
2022-08-25T18:29:51.929Z,97394.22
2022-08-25T18:40:12.514Z,97388.66
2022-08-25T18:50:16.512Z,97390.88
2022-08-25T19:00:21.556Z,97392.22
2022-08-25T19:10:24.045Z,97380.91
2022-08-25T19:20:30.235Z,97383.91
2022-08-25T19:30:34.402Z,97383.91
2022-08-25T19:40:37.973Z,97371.72
2022-08-25T19:50:41.552Z,97362.91
2022-08-25T20:00:46.177Z,97387.34
2022-08-25T20:10:50.484Z,97365.97
2022-08-25T20:20:52.727Z,97375.34
